createdAt,value
2023-04-23T00:01:22.332Z,19.46
2023-04-23T00:03:50.763Z,19.50
2023-04-23T00:06:22.446Z,19.18
2023-04-23T00:08:55.715Z,19.19
2023-04-23T00:11:27.483Z,19.10
2023-04-23T00:13:57.073Z,18.95
2023-04-23T00:16:24.905Z,19.06
2023-04-23T00:18:51.773Z,18.99
2023-04-23T00:21:18.745Z,19.18
2023-04-23T00:23:47.913Z,18.88
2023-04-23T00:26:14.797Z,18.84
2023-04-23T00:28:44.192Z,18.74
2023-04-23T00:31:13.188Z,18.77
2023-04-23T00:33:40.131Z,18.59
2023-04-23T00:36:07.587Z,18.77
2023-04-23T00:38:34.447Z,18.34
2023-04-23T00:41:01.371Z,18.66
2023-04-23T00:43:28.602Z,18.76
2023-04-23T00:45:56.052Z,18.66
2023-04-23T00:48:22.949Z,18.84
2023-04-23T00:50:52.162Z,18.85
2023-04-23T00:53:19.002Z,18.61
2023-04-23T00:55:46.369Z,18.64
2023-04-23T00:58:15.688Z,18.76
2023-04-23T01:00:47.030Z,18.87
2023-04-23T01:03:14.269Z,18.82
2023-04-23T01:05:46.309Z,18.79
2023-04-23T01:08:19.911Z,18.88
2023-04-23T01:10:48.052Z,19.04
2023-04-23T01:13:17.511Z,18.91
2023-04-23T01:15:45.485Z,18.95
2023-04-23T01:18:13.247Z,19.03
2023-04-23T01:20:43.195Z,18.54
2023-04-23T01:23:10.078Z,18.70
2023-04-23T01:25:36.938Z,18.85
2023-04-23T01:28:09.437Z,18.78
2023-04-23T01:30:37.535Z,18.66
2023-04-23T01:33:06.490Z,18.61
2023-04-23T01:35:36.292Z,18.47
2023-04-23T01:38:04.327Z,18.10
2023-04-23T01:40:31.319Z,18.24
2023-04-23T01:43:01.672Z,18.17
2023-04-23T01:45:30.928Z,18.03
2023-04-23T01:48:01.401Z,18.01
2023-04-23T01:50:31.915Z,18.07
2023-04-23T01:52:58.813Z,18.05
2023-04-23T01:55:25.881Z,17.54
2023-04-23T01:57:52.710Z,17.50
2023-04-23T02:00:20.778Z,17.67
2023-04-23T02:02:52.492Z,17.84
2023-04-23T02:05:21.326Z,17.91
2023-04-23T02:07:50.845Z,18.16
2023-04-23T02:10:18.762Z,18.18
2023-04-23T02:12:47.247Z,17.86
2023-04-23T02:15:17.314Z,17.46
2023-04-23T02:17:44.464Z,17.70
2023-04-23T02:20:14.198Z,17.93
2023-04-23T02:22:42.437Z,17.98
2023-04-23T02:25:16.923Z,17.82
2023-04-23T02:27:44.829Z,18.10
2023-04-23T02:30:14.947Z,18.14
2023-04-23T02:32:43.211Z,18.27
2023-04-23T02:35:10.626Z,18.29
2023-04-23T02:37:38.058Z,18.19
2023-04-23T02:40:08.227Z,17.80
2023-04-23T02:42:35.414Z,17.50
2023-04-23T02:45:04.574Z,17.41
2023-04-23T02:47:33.854Z,17.39
2023-04-23T02:50:05.815Z,17.71
2023-04-23T02:52:33.903Z,17.68
2023-04-23T02:55:02.158Z,17.77
2023-04-23T02:57:29.078Z,17.93
2023-04-23T02:59:58.519Z,17.80
2023-04-23T03:02:25.563Z,17.30
2023-04-23T03:04:52.561Z,17.18
2023-04-23T03:07:19.479Z,17.33
2023-04-23T03:09:46.493Z,17.60
2023-04-23T03:12:16.687Z,17.39
2023-04-23T03:14:46.084Z,17.61
2023-04-23T03:17:15.597Z,17.57
2023-04-23T03:19:42.656Z,17.55
2023-04-23T03:22:13.139Z,17.57
2023-04-23T03:24:40.324Z,17.61
2023-04-23T03:27:07.447Z,17.61
2023-04-23T03:29:36.939Z,17.71
2023-04-23T03:32:06.920Z,17.54
2023-04-23T03:34:33.773Z,17.13
2023-04-23T03:37:02.760Z,16.66
2023-04-23T03:39:29.604Z,16.57
2023-04-23T03:41:58.093Z,16.31
2023-04-23T03:44:24.996Z,16.39
2023-04-23T03:46:52.373Z,16.50
2023-04-23T03:49:19.204Z,16.34
2023-04-23T03:51:46.337Z,16.39
2023-04-23T03:54:13.218Z,16.62
2023-04-23T03:56:40.232Z,16.54
2023-04-23T03:59:09.676Z,16.57
2023-04-23T04:01:36.987Z,16.53
2023-04-23T04:04:07.239Z,16.40
2023-04-23T04:06:36.852Z,16.22
2023-04-23T04:09:03.889Z,16.33
2023-04-23T04:11:36.633Z,16.34
2023-04-23T04:14:03.622Z,16.26
2023-04-23T04:16:30.619Z,16.30
2023-04-23T04:18:57.528Z,16.28
2023-04-23T04:21:24.483Z,16.36
2023-04-23T04:23:51.301Z,16.08
2023-04-23T04:26:18.719Z,16.14
2023-04-23T04:28:45.639Z,16.13
2023-04-23T04:31:15.852Z,16.06
2023-04-23T04:33:43.336Z,15.82
2023-04-23T04:36:10.327Z,15.82
2023-04-23T04:38:37.889Z,15.93
2023-04-23T04:41:07.625Z,15.82
2023-04-23T04:43:34.764Z,15.81
2023-04-23T04:46:01.851Z,15.86
2023-04-23T04:48:28.795Z,15.77
2023-04-23T04:50:55.704Z,15.67
2023-04-23T04:53:25.001Z,15.60
2023-04-23T04:55:53.974Z,15.75
2023-04-23T04:58:20.844Z,16.01
2023-04-23T05:00:53.387Z,15.75
2023-04-23T05:03:20.991Z,15.69
2023-04-23T05:05:48.668Z,15.51
2023-04-23T05:08:17.014Z,15.47
2023-04-23T05:10:46.628Z,15.67
2023-04-23T05:13:13.674Z,15.80
2023-04-23T05:15:42.817Z,15.69
2023-04-23T05:18:10.901Z,15.71
2023-04-23T05:20:41.211Z,15.77
2023-04-23T05:23:10.276Z,15.73
2023-04-23T05:25:37.202Z,15.66
2023-04-23T05:28:04.300Z,15.45
2023-04-23T05:30:33.807Z,15.58
2023-04-23T05:33:00.763Z,15.59
2023-04-23T05:35:31.854Z,15.45
2023-04-23T05:37:58.861Z,15.30
2023-04-23T05:40:28.783Z,15.48
2023-04-23T05:43:00.495Z,15.55
2023-04-23T05:45:27.991Z,15.63
2023-04-23T05:47:57.339Z,15.72
2023-04-23T05:50:24.360Z,15.72
2023-04-23T05:52:51.206Z,15.63
2023-04-23T05:55:20.876Z,15.68
2023-04-23T05:57:50.898Z,15.78
2023-04-23T06:00:17.982Z,15.88
2023-04-23T06:02:49.626Z,15.89
2023-04-23T06:05:16.849Z,15.85
2023-04-23T06:07:43.906Z,15.75
2023-04-23T06:10:11.559Z,15.92
2023-04-23T06:12:39.284Z,15.99
2023-04-23T06:15:29.445Z,16.15
2023-04-23T06:17:56.723Z,16.09
2023-04-23T06:20:23.618Z,16.11
2023-04-23T06:22:55.427Z,16.23
2023-04-23T06:25:23.085Z,16.35
2023-04-23T06:27:52.176Z,16.01
2023-04-23T06:30:19.144Z,16.10
2023-04-23T06:32:46.413Z,15.96
2023-04-23T06:35:15.846Z,15.91
2023-04-23T06:37:45.873Z,15.77
2023-04-23T06:40:16.186Z,15.93
2023-04-23T06:42:43.277Z,15.95
2023-04-23T06:45:13.263Z,16.11
2023-04-23T06:47:41.798Z,16.18
2023-04-23T06:50:09.078Z,16.36
2023-04-23T06:52:38.835Z,15.91
2023-04-23T06:55:06.762Z,15.87
2023-04-23T06:57:36.110Z,15.77
2023-04-23T07:00:03.422Z,15.54
2023-04-23T07:02:30.404Z,15.32
2023-04-23T07:04:57.337Z,15.51
2023-04-23T07:07:25.493Z,15.45
2023-04-23T07:09:52.958Z,15.51
2023-04-23T07:12:22.469Z,15.86
2023-04-23T07:14:54.928Z,15.91
2023-04-23T07:17:23.246Z,15.77
2023-04-23T07:19:53.704Z,15.74
2023-04-23T07:22:20.673Z,15.56
2023-04-23T07:24:52.151Z,16.01
2023-04-23T07:27:19.618Z,16.12
2023-04-23T07:29:46.669Z,16.11
2023-04-23T07:32:13.660Z,16.32
2023-04-23T07:34:40.735Z,16.56
2023-04-23T07:37:13.307Z,16.54
2023-04-23T07:39:43.941Z,16.59
2023-04-23T07:42:11.272Z,16.81
2023-04-23T07:44:38.445Z,16.88
2023-04-23T07:47:05.490Z,16.94
2023-04-23T07:49:32.352Z,17.33
2023-04-23T07:51:59.319Z,17.50
2023-04-23T07:54:28.921Z,17.38
2023-04-23T07:56:58.316Z,17.10
2023-04-23T07:59:25.175Z,16.93
2023-04-23T08:01:54.375Z,16.83
2023-04-23T08:04:21.580Z,16.89
2023-04-23T08:06:48.778Z,17.25
2023-04-23T08:09:17.874Z,17.59
2023-04-23T08:11:44.976Z,16.93
2023-04-23T08:14:11.925Z,17.38
2023-04-23T08:16:39.187Z,17.82
2023-04-23T08:19:06.748Z,17.94
2023-04-23T08:21:34.331Z,18.54
2023-04-23T08:24:02.929Z,19.24
2023-04-23T08:26:30.661Z,19.36
2023-04-23T08:28:57.872Z,19.32
2023-04-23T08:31:27.573Z,18.82
2023-04-23T08:33:55.553Z,19.24
2023-04-23T08:36:26.148Z,19.58
2023-04-23T08:38:53.230Z,19.61
2023-04-23T08:41:24.601Z,20.13
2023-04-23T08:44:17.838Z,20.56
2023-04-23T08:46:45.694Z,20.84
2023-04-23T08:49:16.611Z,20.86
2023-04-23T08:52:30.724Z,20.62
2023-04-23T08:55:05.019Z,21.21
2023-04-23T08:57:34.132Z,21.63
2023-04-23T09:00:06.127Z,20.78
2023-04-23T09:02:37.171Z,21.15
2023-04-23T09:05:05.402Z,21.57
2023-04-23T09:07:36.086Z,21.63
2023-04-23T09:10:07.030Z,21.71
2023-04-23T09:12:36.957Z,21.84
2023-04-23T09:15:10.694Z,21.25
2023-04-23T09:17:46.477Z,21.48
2023-04-23T09:20:15.097Z,21.72
2023-04-23T09:22:47.107Z,21.95
2023-04-23T09:25:18.448Z,22.27
2023-04-23T09:27:46.932Z,22.13
2023-04-23T09:30:15.357Z,20.92
2023-04-23T09:32:45.998Z,21.11
2023-04-23T09:35:20.710Z,21.49
2023-04-23T09:37:52.507Z,21.78
2023-04-23T09:40:23.723Z,21.90
2023-04-23T09:42:55.693Z,20.74
2023-04-23T09:45:25.683Z,21.43
2023-04-23T09:47:59.132Z,22.81
2023-04-23T09:50:36.683Z,22.57
2023-04-23T09:53:04.985Z,22.43
2023-04-23T09:55:38.845Z,20.90
2023-04-23T09:58:13.565Z,20.86
2023-04-23T10:00:43.459Z,21.35
2023-04-23T10:03:11.191Z,21.98
2023-04-23T10:08:14.727Z,22.84
2023-04-23T10:10:59.612Z,23.39
2023-04-23T10:13:31.598Z,23.40
2023-04-23T10:16:13.912Z,23.31
2023-04-23T10:18:48.571Z,23.53
2023-04-23T10:21:20.096Z,23.90
2023-04-23T10:23:50.302Z,24.08
2023-04-23T10:26:20.342Z,24.62
2023-04-23T10:28:49.234Z,24.75
2023-04-23T10:31:17.955Z,25.01
2023-04-23T10:33:56.108Z,25.22
2023-04-23T10:36:27.799Z,25.46
2023-04-23T10:38:59.126Z,25.83
2023-04-23T10:41:36.582Z,25.29
2023-04-23T10:44:05.857Z,25.45
2023-04-23T10:46:34.815Z,25.07
2023-04-23T10:49:24.649Z,25.38
2023-04-23T10:52:21.066Z,25.93
2023-04-23T10:54:57.351Z,24.46
2023-04-23T10:57:24.309Z,24.74
2023-04-23T10:59:58.948Z,25.64
2023-04-23T11:02:46.625Z,26.33
2023-04-23T11:05:13.738Z,27.11
2023-04-23T11:07:43.718Z,27.33
2023-04-23T11:10:15.369Z,26.17
2023-04-23T11:12:44.930Z,25.90
2023-04-23T11:15:15.277Z,25.97
2023-04-23T11:17:47.195Z,25.79
2023-04-23T11:20:24.196Z,25.95
2023-04-23T11:22:53.099Z,26.16
2023-04-23T11:25:26.828Z,26.39
2023-04-23T11:28:00.519Z,26.57
2023-04-23T11:30:29.694Z,27.02
2023-04-23T11:33:00.050Z,26.98
2023-04-23T11:35:29.413Z,26.83
2023-04-23T11:37:58.947Z,26.99
2023-04-23T11:40:25.982Z,26.38
2023-04-23T11:42:57.587Z,25.17
2023-04-23T11:45:30.582Z,24.64
2023-04-23T11:48:00.756Z,25.25
2023-04-23T11:50:33.496Z,25.58
2023-04-23T11:53:11.546Z,25.49
2023-04-23T11:55:44.124Z,25.25
2023-04-23T11:58:11.568Z,25.88
2023-04-23T12:00:43.243Z,26.51
2023-04-23T12:03:10.356Z,26.95
2023-04-23T12:05:42.409Z,26.60
2023-04-23T12:08:16.151Z,27.30
2023-04-23T12:10:52.726Z,26.38
2023-04-23T12:13:26.534Z,26.01
2023-04-23T12:16:01.752Z,25.96
2023-04-23T12:18:35.786Z,25.75
2023-04-23T12:21:07.220Z,25.52
2023-04-23T12:23:38.205Z,25.24
2023-04-23T12:26:15.953Z,25.25
2023-04-23T12:29:00.153Z,25.53
2023-04-23T12:31:28.988Z,24.48
2023-04-23T12:34:04.611Z,25.17
2023-04-23T12:36:38.498Z,25.51
2023-04-23T12:39:33.807Z,25.02
2023-04-23T12:42:08.092Z,25.89
2023-04-23T12:44:37.870Z,25.50
2023-04-23T12:47:11.928Z,25.10
2023-04-23T12:49:44.350Z,25.74
2023-04-23T12:52:14.220Z,26.60
2023-04-23T12:54:44.876Z,26.52
2023-04-23T12:57:14.207Z,26.46
2023-04-23T12:59:41.428Z,25.49
2023-04-23T13:02:09.755Z,24.65
2023-04-23T13:04:37.008Z,24.32
2023-04-23T13:07:05.382Z,24.35
2023-04-23T13:09:37.114Z,24.43
2023-04-23T13:12:04.167Z,24.16
2023-04-23T13:14:33.228Z,24.12
2023-04-23T13:17:00.182Z,24.62
2023-04-23T13:19:30.264Z,25.38
2023-04-23T13:22:01.615Z,24.80
2023-04-23T13:24:31.493Z,23.90
2023-04-23T13:26:58.410Z,24.26
2023-04-23T13:29:28.621Z,24.24
2023-04-23T13:31:57.199Z,24.38
2023-04-23T13:34:24.357Z,24.28
2023-04-23T13:36:51.278Z,23.70
2023-04-23T13:39:21.415Z,23.25
2023-04-23T13:41:59.152Z,23.58
2023-04-23T13:44:36.027Z,24.24
2023-04-23T13:47:03.348Z,23.74
2023-04-23T13:49:30.219Z,23.74
2023-04-23T13:52:04.188Z,24.01
2023-04-23T13:54:31.465Z,22.86
2023-04-23T13:56:58.884Z,23.08
2023-04-23T13:59:26.275Z,23.39
2023-04-23T14:01:53.170Z,23.47
2023-04-23T14:04:24.681Z,23.69
2023-04-23T14:06:54.266Z,23.91
2023-04-23T14:09:22.701Z,24.61
2023-04-23T14:11:52.256Z,24.38
2023-04-23T14:14:19.215Z,24.15
2023-04-23T14:16:48.348Z,24.09
2023-04-23T14:19:15.830Z,24.01
2023-04-23T14:21:42.929Z,24.41
2023-04-23T14:24:26.723Z,24.56
2023-04-23T14:26:56.877Z,24.14
2023-04-23T14:30:05.538Z,24.33
2023-04-23T14:32:34.765Z,24.13
2023-04-23T14:35:03.205Z,23.68
2023-04-23T14:37:34.393Z,23.48
2023-04-23T14:40:01.245Z,23.02
2023-04-23T14:42:30.174Z,22.91
2023-04-23T14:45:02.166Z,22.98
2023-04-23T14:47:29.047Z,22.88
2023-04-23T14:50:01.041Z,22.81
2023-04-23T14:52:28.000Z,22.87
2023-04-23T14:54:55.920Z,22.50
2023-04-23T14:57:23.099Z,22.13
2023-04-23T14:59:52.152Z,22.23
2023-04-23T15:02:19.078Z,21.90
2023-04-23T15:04:46.311Z,22.04
2023-04-23T15:07:16.321Z,21.96
2023-04-23T15:09:43.395Z,21.49
2023-04-23T15:12:53.360Z,21.40
2023-04-23T15:15:37.049Z,21.67
2023-04-23T15:18:11.985Z,21.77
2023-04-23T15:20:46.662Z,21.64
2023-04-23T15:23:13.700Z,21.54
2023-04-23T15:25:43.575Z,21.67
2023-04-23T15:28:10.548Z,21.83
2023-04-23T15:30:37.433Z,21.55
2023-04-23T15:33:04.469Z,21.84
2023-04-23T15:35:31.470Z,21.92
2023-04-23T15:37:58.407Z,21.96
2023-04-23T15:40:29.337Z,21.97
2023-04-23T15:42:59.232Z,22.13
2023-04-23T15:45:28.241Z,21.95
2023-04-23T15:47:55.245Z,21.87
2023-04-23T15:50:26.723Z,21.98
2023-04-23T15:52:58.875Z,21.95
2023-04-23T15:55:29.432Z,21.74
2023-04-23T15:58:01.516Z,21.44
2023-04-23T16:00:33.993Z,21.73
2023-04-23T16:03:01.501Z,21.75
2023-04-23T16:05:29.881Z,21.72
2023-04-23T16:07:59.022Z,21.28
2023-04-23T16:10:26.605Z,20.92
2023-04-23T16:12:55.708Z,20.04
2023-04-23T16:15:22.762Z,19.12
2023-04-23T16:17:50.117Z,18.34
2023-04-23T16:20:19.754Z,17.61
2023-04-23T16:22:48.814Z,17.51
2023-04-23T16:25:17.885Z,17.39
2023-04-23T16:27:45.087Z,16.95
2023-04-23T16:30:17.025Z,17.00
2023-04-23T16:32:44.034Z,16.98
2023-04-23T16:35:11.386Z,16.93
2023-04-23T16:37:38.327Z,17.03
2023-04-23T16:40:06.225Z,17.39
2023-04-23T16:42:33.308Z,17.58
2023-04-23T16:45:01.490Z,17.47
2023-04-23T16:47:28.495Z,17.81
2023-04-23T16:49:55.488Z,17.82
2023-04-23T16:52:23.224Z,17.75
2023-04-23T16:54:52.561Z,17.89
2023-04-23T16:57:19.582Z,18.02
2023-04-23T16:59:46.806Z,18.05
2023-04-23T17:02:13.837Z,18.34
2023-04-23T17:04:41.020Z,18.29
2023-04-23T17:07:12.560Z,18.32
2023-04-23T17:09:39.485Z,18.21
2023-04-23T17:12:06.460Z,18.37
2023-04-23T17:14:33.423Z,18.42
2023-04-23T17:17:00.424Z,18.51
2023-04-23T17:19:27.478Z,18.44
2023-04-23T17:21:57.459Z,18.07
2023-04-23T17:24:32.050Z,18.10
2023-04-23T17:26:59.089Z,18.16
2023-04-23T17:29:26.239Z,17.87
2023-04-23T17:31:53.313Z,18.06
2023-04-23T17:34:21.452Z,18.00
2023-04-23T17:36:48.502Z,18.16
2023-04-23T17:39:19.847Z,17.88
2023-04-23T17:41:49.858Z,17.94
2023-04-23T17:44:19.195Z,18.10
2023-04-23T17:46:48.971Z,17.99
2023-04-23T17:49:18.214Z,17.72
2023-04-23T17:51:45.355Z,17.61
2023-04-23T17:54:12.206Z,17.79
2023-04-23T17:56:39.639Z,17.77
2023-04-23T17:59:06.668Z,17.72
2023-04-23T18:01:36.642Z,17.74
2023-04-23T18:04:06.576Z,17.72
2023-04-23T18:06:36.855Z,17.87
2023-04-23T18:09:03.750Z,17.97
2023-04-23T18:11:30.853Z,17.88
2023-04-23T18:13:57.878Z,17.88
2023-04-23T18:16:24.773Z,17.83
2023-04-23T18:18:54.114Z,17.72
2023-04-23T18:21:23.857Z,17.73
2023-04-23T18:23:50.879Z,17.59
2023-04-23T18:26:17.742Z,17.33
2023-04-23T18:28:44.559Z,17.22
2023-04-23T18:31:12.049Z,17.32
2023-04-23T18:34:02.203Z,17.26
2023-04-23T18:36:37.576Z,17.34
2023-04-23T18:39:07.377Z,17.47
2023-04-23T18:41:36.792Z,17.52
2023-04-23T18:44:03.730Z,17.50
2023-04-23T18:46:33.330Z,17.66
2023-04-23T18:49:37.086Z,17.60
2023-04-23T18:52:04.311Z,17.69
2023-04-23T18:54:34.351Z,17.77
2023-04-23T18:57:02.195Z,17.68
2023-04-23T18:59:29.230Z,17.49
2023-04-23T19:01:58.915Z,17.32
2023-04-23T19:04:26.485Z,17.54
2023-04-23T19:06:53.633Z,17.66
2023-04-23T19:09:20.958Z,17.68
2023-04-23T19:11:48.043Z,17.60
2023-04-23T19:14:19.094Z,17.51
2023-04-23T19:16:47.399Z,17.56
2023-04-23T19:19:14.510Z,17.58
2023-04-23T19:21:41.472Z,17.51
2023-04-23T19:24:08.450Z,17.57
2023-04-23T19:26:35.371Z,17.66
2023-04-23T19:29:02.607Z,17.74
2023-04-23T19:31:30.917Z,17.72
2023-04-23T19:33:58.119Z,17.57
2023-04-23T19:36:28.032Z,17.48
2023-04-23T19:38:54.994Z,17.37
2023-04-23T19:41:22.363Z,17.44
2023-04-23T19:43:51.388Z,17.41
2023-04-23T19:46:18.463Z,17.43
2023-04-23T19:48:47.601Z,17.40
2023-04-23T19:51:14.594Z,17.21
2023-04-23T19:53:44.126Z,17.14
2023-04-23T19:56:13.381Z,17.00
2023-04-23T19:58:40.591Z,17.03
2023-04-23T20:01:08.063Z,16.97
2023-04-23T20:03:35.796Z,17.03
2023-04-23T20:06:07.596Z,16.76
2023-04-23T20:08:42.194Z,16.77
2023-04-23T20:11:10.565Z,16.74
2023-04-23T20:13:39.809Z,16.59
2023-04-23T20:16:08.275Z,16.45
2023-04-23T20:18:35.881Z,16.43
2023-04-23T20:21:03.039Z,16.65
2023-04-23T20:23:29.919Z,16.82
2023-04-23T20:25:57.064Z,16.93
2023-04-23T20:28:26.290Z,16.85
2023-04-23T20:30:55.993Z,16.74
2023-04-23T20:33:22.832Z,16.57
2023-04-23T20:35:50.457Z,16.43
2023-04-23T20:38:19.261Z,16.60
2023-04-23T20:40:47.049Z,16.73
2023-04-23T20:43:14.445Z,16.90
2023-04-23T20:45:43.035Z,16.80
2023-04-23T20:48:10.050Z,17.01
2023-04-23T20:50:37.331Z,17.03
2023-04-23T20:53:04.279Z,17.02
2023-04-23T20:55:31.357Z,16.92
2023-04-23T20:58:01.300Z,17.01
2023-04-23T21:00:31.046Z,16.90
2023-04-23T21:02:58.449Z,17.00
2023-04-23T21:05:27.957Z,16.88
2023-04-23T21:07:54.976Z,16.68
2023-04-23T21:10:21.911Z,16.50
2023-04-23T21:12:49.296Z,16.06
2023-04-23T21:15:17.414Z,16.18
2023-04-23T21:17:44.721Z,16.06
2023-04-23T21:20:14.703Z,16.04
2023-04-23T21:22:41.607Z,16.12
2023-04-23T21:25:11.171Z,16.20
2023-04-23T21:27:45.434Z,16.04
2023-04-23T21:30:49.452Z,15.89
2023-04-23T21:33:18.221Z,16.04
2023-04-23T21:35:46.294Z,16.07
2023-04-23T21:38:13.416Z,16.02
2023-04-23T21:40:40.994Z,16.02
2023-04-23T21:43:10.562Z,16.07
2023-04-23T21:45:37.901Z,16.13
2023-04-23T21:48:06.161Z,16.14
2023-04-23T21:50:34.082Z,16.16
2023-04-23T21:53:03.095Z,16.22
2023-04-23T21:55:34.034Z,15.98
2023-04-23T22:00:32.088Z,16.10
2023-04-23T22:02:59.159Z,16.40
2023-04-23T22:05:29.866Z,16.50
2023-04-23T22:07:56.891Z,16.36
2023-04-23T22:10:26.504Z,16.24
2023-04-23T22:12:53.434Z,16.16
2023-04-23T22:15:20.616Z,16.31
2023-04-23T22:17:50.416Z,16.52
2023-04-23T22:20:19.142Z,16.54
2023-04-23T22:22:46.338Z,16.54
2023-04-23T22:25:13.625Z,16.40
2023-04-23T22:27:41.831Z,16.29
2023-04-23T22:30:11.144Z,16.29
2023-04-23T22:32:40.918Z,16.44
2023-04-23T22:35:09.303Z,16.36
2023-04-23T22:37:36.711Z,16.12
2023-04-23T22:40:08.005Z,16.40
2023-04-23T22:42:37.886Z,16.43
2023-04-23T22:45:10.290Z,16.55
2023-04-23T22:47:39.770Z,16.71
2023-04-23T22:50:12.510Z,16.68
2023-04-23T22:52:42.176Z,16.81
2023-04-23T22:55:14.565Z,16.64
2023-04-23T22:57:46.482Z,16.52
2023-04-23T23:00:16.446Z,16.53
2023-04-23T23:02:43.409Z,16.40
2023-04-23T23:05:14.916Z,16.50
2023-04-23T23:07:49.020Z,16.46
2023-04-23T23:10:15.957Z,16.64
2023-04-23T23:12:42.926Z,16.59
2023-04-23T23:15:10.365Z,16.40
2023-04-23T23:17:37.297Z,15.93
2023-04-23T23:20:08.769Z,15.83
2023-04-23T23:22:38.716Z,15.83
2023-04-23T23:25:08.565Z,15.47
2023-04-23T23:27:35.668Z,15.55
2023-04-23T23:30:06.128Z,15.79
2023-04-23T23:32:33.760Z,15.63
2023-04-23T23:35:00.815Z,15.79
2023-04-23T23:37:27.889Z,15.52
2023-04-23T23:39:57.257Z,15.38
2023-04-23T23:42:24.123Z,15.45
2023-04-23T23:44:51.050Z,15.41
2023-04-23T23:47:18.146Z,15.30
2023-04-23T23:49:45.158Z,15.36
2023-04-23T23:52:12.344Z,15.57
2023-04-23T23:54:41.368Z,15.44
2023-04-23T23:57:08.358Z,15.64
2023-04-23T23:59:35.296Z,15.39
